Delta Virtual Airport Information Service

Tbilisi International Airport

ICAO: UGTB Country: Georgia
Latitude: 41.6692 Longitude: 44.9547
Latest Arrival : QTR355 (OTHH-UGTB) Latest Departure : DLH2557 (UGTB-EDDM)


WX CaptureLIVE
Data provided by noaa.gov | Fetched at 10:20:56

METAR : UGTB 151500Z VRB02KT CAVOK 30/16 Q1008 NOSIG

TAF : UGTB 151100Z 1512/1612 VRB02KT CAVOK TX31/1612Z TN20/1602Z TEMPO 1608/1612 15012KT SCT055


Runway Data for UGTB
Data provided by openaviationdata.com

Runway ID Mag Var Hdg Length Elevation Surface ILS Freq ILS Id ILS Slope

Tbilisi International Airport, Georgia
Use only for reference purposes



Not for navigational purposes.